Terminal Aerodrome Forecast
Issued by NWS

Home | Current Version | Previous Version | Text Only | Print | Product List | Glossary On
Versions: 1 2 3 4 5 6 7 8 9 10 11 12 13 14 15
000
FTUS42 KTAE 241100
TAFVLD
TAF
KVLD 241120Z 2412/2512 00000KT 2SM BR SCT001 BKN080
      TEMPO 2412/2413 1/2SM FG BKN001
     FM241400 16004KT P6SM SCT040
     FM250700 00000KT 3SM BR BKN015=

USA.gov is the U.S. government's official web portal to all federal, state and local government web resources and services.